createdAt,value
2022-12-12T00:00:42.935Z,0.00
2022-12-12T00:01:37.578Z,0.00
2022-12-12T00:02:37.723Z,0.00
2022-12-12T00:03:37.643Z,0.00
2022-12-12T00:04:37.520Z,0.00
2022-12-12T00:05:37.509Z,0.00
2022-12-12T00:06:37.491Z,0.00
2022-12-12T00:07:37.483Z,0.00
2022-12-12T00:08:37.467Z,0.00
2022-12-12T00:09:37.458Z,0.00
2022-12-12T00:10:37.442Z,0.00
2022-12-12T00:11:37.426Z,0.00
2022-12-12T00:12:37.408Z,0.00
2022-12-12T00:13:37.399Z,0.00
2022-12-12T00:14:37.387Z,0.00
2022-12-12T00:15:37.400Z,0.00
2022-12-12T00:16:37.364Z,0.00
2022-12-12T00:17:37.380Z,0.00
2022-12-12T00:18:37.341Z,0.00
2022-12-12T00:19:37.327Z,0.00
2022-12-12T00:20:37.309Z,0.00
2022-12-12T00:21:37.300Z,0.00
2022-12-12T00:22:37.282Z,0.00
2022-12-12T00:23:37.276Z,0.00
2022-12-12T00:24:37.256Z,0.00
2022-12-12T00:25:37.250Z,0.00
2022-12-12T00:26:37.229Z,0.00
2022-12-12T00:27:37.223Z,0.00
2022-12-12T00:28:37.204Z,0.00
2022-12-12T00:29:37.199Z,0.00
2022-12-12T00:30:37.174Z,0.00
2022-12-12T00:31:37.260Z,0.00
2022-12-12T00:32:37.158Z,0.00
2022-12-12T00:33:37.168Z,0.00
2022-12-12T00:34:37.121Z,0.00
2022-12-12T00:35:37.112Z,0.00
2022-12-12T00:36:37.102Z,0.00
2022-12-12T00:37:37.088Z,0.00
2022-12-12T00:38:37.074Z,0.00
2022-12-12T00:39:37.060Z,0.00
2022-12-12T00:40:37.055Z,0.00
2022-12-12T00:41:37.037Z,0.00
2022-12-12T00:42:37.030Z,0.00
2022-12-12T00:43:37.012Z,0.00
2022-12-12T00:44:37.002Z,0.00
2022-12-12T00:45:36.985Z,0.00
2022-12-12T00:46:37.048Z,0.00
2022-12-12T00:47:36.967Z,0.00
2022-12-12T00:48:36.949Z,0.00
2022-12-12T00:49:36.966Z,0.00
2022-12-12T00:50:36.920Z,0.00
2022-12-12T00:51:36.911Z,0.00
2022-12-12T00:52:36.897Z,0.00
2022-12-12T00:53:36.882Z,0.00
2022-12-12T00:54:36.872Z,0.00
2022-12-12T00:55:36.857Z,0.00
2022-12-12T00:56:36.847Z,0.00
2022-12-12T00:57:36.834Z,0.00
2022-12-12T00:58:36.825Z,0.00
2022-12-12T00:59:36.811Z,0.00
2022-12-12T01:00:36.791Z,0.00
2022-12-12T01:01:36.885Z,0.00
2022-12-12T01:02:36.841Z,0.00
2022-12-12T01:03:36.759Z,0.00
2022-12-12T01:04:36.740Z,0.00
2022-12-12T01:05:36.772Z,0.00
2022-12-12T01:06:36.716Z,0.00
2022-12-12T01:07:36.704Z,0.00
2022-12-12T01:08:36.694Z,0.00
2022-12-12T01:09:36.677Z,0.00
2022-12-12T01:10:36.670Z,0.00
2022-12-12T01:11:36.654Z,0.00
2022-12-12T01:12:36.650Z,0.00
2022-12-12T01:13:36.627Z,0.00
2022-12-12T01:14:36.617Z,0.00
2022-12-12T01:15:36.602Z,0.00
2022-12-12T01:16:36.672Z,0.00
2022-12-12T01:17:36.576Z,0.00
2022-12-12T01:18:36.566Z,0.00
2022-12-12T01:19:36.555Z,0.00
2022-12-12T01:20:36.534Z,0.00
2022-12-12T01:21:36.559Z,0.00
2022-12-12T01:22:36.508Z,0.00
2022-12-12T01:23:36.499Z,0.00
2022-12-12T01:24:36.495Z,0.00
2022-12-12T01:25:36.472Z,0.00
2022-12-12T01:26:36.464Z,0.00
2022-12-12T01:27:36.446Z,0.00
2022-12-12T01:28:36.438Z,0.00
2022-12-12T01:29:36.422Z,0.00
2022-12-12T01:30:36.412Z,0.00
2022-12-12T01:31:36.469Z,0.00
2022-12-12T01:32:36.391Z,0.00
2022-12-12T01:33:36.371Z,0.00
2022-12-12T01:34:36.361Z,0.00
2022-12-12T01:35:36.344Z,0.00
2022-12-12T01:36:36.334Z,0.00
2022-12-12T01:37:36.343Z,0.00
2022-12-12T01:38:36.313Z,0.00
2022-12-12T01:39:36.297Z,0.00
2022-12-12T01:40:36.280Z,0.00
2022-12-12T01:41:36.275Z,0.00
2022-12-12T01:42:36.253Z,0.00
2022-12-12T01:43:36.252Z,0.00
2022-12-12T01:44:36.226Z,0.00
2022-12-12T01:45:36.222Z,0.00
2022-12-12T01:46:36.253Z,0.00
2022-12-12T01:47:36.196Z,0.00
2022-12-12T01:48:36.177Z,0.00
2022-12-12T01:49:36.171Z,0.00
2022-12-12T01:50:36.153Z,0.00
2022-12-12T01:51:36.138Z,0.00
2022-12-12T01:52:36.132Z,0.00
2022-12-12T01:53:36.137Z,0.00
2022-12-12T01:54:36.104Z,0.00
2022-12-12T01:55:36.094Z,0.00
2022-12-12T01:56:36.076Z,0.00
2022-12-12T01:57:36.069Z,0.00
2022-12-12T01:58:36.050Z,0.00
2022-12-12T01:59:36.041Z,0.00
2022-12-12T02:00:36.085Z,0.00
2022-12-12T02:01:36.040Z,0.00
2022-12-12T02:02:35.999Z,0.00
2022-12-12T02:03:35.995Z,0.00
2022-12-12T02:04:35.971Z,0.00
2022-12-12T02:05:35.983Z,0.00
2022-12-12T02:06:35.951Z,0.00
2022-12-12T02:07:35.943Z,0.00
2022-12-12T02:08:35.921Z,0.00
2022-12-12T02:09:35.947Z,0.00
2022-12-12T02:10:35.901Z,0.00
2022-12-12T02:11:35.885Z,0.00
2022-12-12T02:12:35.875Z,0.00
2022-12-12T02:13:35.859Z,0.00
2022-12-12T02:14:35.847Z,0.00
2022-12-12T02:15:35.838Z,0.00
2022-12-12T02:16:35.877Z,0.00
2022-12-12T02:17:35.812Z,0.00
2022-12-12T02:18:35.795Z,0.00
2022-12-12T02:19:35.779Z,0.00
2022-12-12T02:20:35.768Z,0.00
2022-12-12T02:21:35.753Z,0.00
2022-12-12T02:22:35.740Z,0.00
2022-12-12T02:23:35.724Z,0.00
2022-12-12T02:24:35.718Z,0.00
2022-12-12T02:25:35.730Z,0.00
2022-12-12T02:26:35.692Z,0.00
2022-12-12T02:27:35.679Z,0.00
2022-12-12T02:28:35.671Z,0.00
2022-12-12T02:29:35.657Z,0.00
2022-12-12T02:30:35.638Z,0.00
2022-12-12T02:31:35.701Z,0.00
2022-12-12T02:32:35.611Z,0.00
2022-12-12T02:33:35.602Z,0.00
2022-12-12T02:34:35.589Z,0.00
2022-12-12T02:35:35.577Z,0.00
2022-12-12T02:36:35.565Z,0.00
2022-12-12T02:37:35.555Z,0.00
2022-12-12T02:38:35.539Z,0.00
2022-12-12T02:39:35.528Z,0.00
2022-12-12T02:40:35.514Z,0.00
2022-12-12T02:41:35.527Z,0.00
2022-12-12T02:42:35.492Z,0.00
2022-12-12T02:43:35.482Z,0.00
2022-12-12T02:44:35.494Z,0.00
2022-12-12T02:45:35.450Z,0.00
2022-12-12T02:46:35.549Z,0.00
2022-12-12T02:47:35.422Z,0.00
2022-12-12T02:48:35.415Z,0.00
2022-12-12T02:49:35.396Z,0.00
2022-12-12T02:50:35.387Z,0.00
2022-12-12T02:51:35.368Z,0.00
2022-12-12T02:52:35.363Z,0.00
2022-12-12T02:53:35.345Z,0.00
2022-12-12T02:54:35.342Z,0.00
2022-12-12T02:55:36.718Z,0.00
2022-12-12T02:56:35.308Z,0.00
2022-12-12T02:57:35.329Z,0.00
2022-12-12T02:58:35.281Z,0.00
2022-12-12T02:59:35.268Z,0.00
2022-12-12T03:00:35.291Z,0.00
2022-12-12T03:01:35.259Z,0.00
2022-12-12T03:02:35.234Z,0.00
2022-12-12T03:03:35.218Z,0.00
2022-12-12T03:04:35.211Z,0.00
2022-12-12T03:05:35.190Z,0.00
2022-12-12T03:06:39.271Z,0.00
2022-12-12T03:07:35.171Z,0.00
2022-12-12T03:08:35.157Z,0.00
2022-12-12T03:09:35.150Z,0.00
2022-12-12T03:10:35.127Z,0.00
2022-12-12T03:11:35.118Z,0.00
2022-12-12T03:12:35.111Z,0.00
2022-12-12T03:13:35.113Z,0.00
2022-12-12T03:14:35.082Z,0.00
2022-12-12T03:15:35.064Z,0.00
2022-12-12T03:16:35.118Z,0.00
2022-12-12T03:17:35.040Z,0.00
2022-12-12T03:18:35.033Z,0.00
2022-12-12T03:19:35.013Z,0.00
2022-12-12T03:20:35.008Z,0.00
2022-12-12T03:21:34.986Z,0.00
2022-12-12T03:22:34.982Z,0.00
2022-12-12T03:23:34.963Z,0.00
2022-12-12T03:24:34.952Z,0.00
2022-12-12T03:25:34.943Z,0.00
2022-12-12T03:26:34.925Z,0.00
2022-12-12T03:27:34.916Z,0.00
2022-12-12T03:28:34.901Z,0.00
2022-12-12T03:29:34.920Z,0.00
2022-12-12T03:30:34.873Z,0.00
2022-12-12T03:31:34.910Z,0.00
2022-12-12T03:32:34.864Z,0.00
2022-12-12T03:33:34.841Z,0.00
2022-12-12T03:34:34.819Z,0.00
2022-12-12T03:35:34.811Z,0.00
2022-12-12T03:36:34.799Z,0.00
2022-12-12T03:37:34.786Z,0.00
2022-12-12T03:38:34.778Z,0.00
2022-12-12T03:39:34.763Z,0.00
2022-12-12T03:40:34.747Z,0.00
2022-12-12T03:41:34.736Z,0.00
2022-12-12T03:42:34.724Z,0.00
2022-12-12T03:43:34.718Z,0.00
2022-12-12T03:44:41.143Z,0.00
2022-12-12T03:45:35.790Z,0.00
2022-12-12T03:46:34.670Z,0.00
2022-12-12T03:47:34.663Z,0.00
2022-12-12T03:48:34.650Z,0.00
2022-12-12T03:49:34.638Z,0.00
2022-12-12T03:50:34.622Z,0.00
2022-12-12T03:51:34.606Z,0.00
2022-12-12T03:52:34.590Z,0.00
2022-12-12T03:53:34.582Z,0.00
2022-12-12T03:54:34.574Z,0.00
2022-12-12T03:55:34.557Z,0.00
2022-12-12T03:56:34.546Z,0.00
2022-12-12T03:57:34.534Z,0.00
2022-12-12T03:58:34.521Z,0.00
2022-12-12T03:59:34.504Z,0.00
2022-12-12T04:00:34.488Z,0.00
2022-12-12T04:01:34.501Z,0.00
2022-12-12T04:02:34.553Z,0.00
2022-12-12T04:03:34.451Z,0.00
2022-12-12T04:04:34.443Z,0.00
2022-12-12T04:05:34.424Z,0.00
2022-12-12T04:06:34.416Z,0.00
2022-12-12T04:07:34.405Z,0.00
2022-12-12T04:08:34.386Z,0.00
2022-12-12T04:09:34.378Z,0.00
2022-12-12T04:10:34.356Z,0.00
2022-12-12T04:11:34.349Z,0.00
2022-12-12T04:12:34.336Z,0.00
2022-12-12T04:13:34.327Z,0.00
2022-12-12T04:14:34.306Z,0.00
2022-12-12T04:15:34.294Z,0.00
2022-12-12T04:16:34.298Z,0.00
2022-12-12T04:17:34.368Z,0.00
2022-12-12T04:18:34.261Z,0.00
2022-12-12T04:19:34.243Z,0.00
2022-12-12T04:20:34.227Z,0.00
2022-12-12T04:21:34.216Z,0.00
2022-12-12T04:22:34.207Z,0.00
2022-12-12T04:23:34.195Z,0.00
2022-12-12T04:24:34.181Z,0.00
2022-12-12T04:25:34.168Z,0.00
2022-12-12T04:26:34.152Z,0.00
2022-12-12T04:27:34.142Z,0.00
2022-12-12T04:28:34.130Z,0.00
2022-12-12T04:29:34.115Z,0.00
2022-12-12T04:30:34.098Z,0.00
2022-12-12T04:31:34.194Z,0.00
2022-12-12T04:32:34.076Z,0.00
2022-12-12T04:33:34.092Z,0.00
2022-12-12T04:34:34.051Z,0.00
2022-12-12T04:35:34.034Z,0.00
2022-12-12T04:36:34.017Z,0.00
2022-12-12T04:37:34.010Z,0.00
2022-12-12T04:38:33.991Z,0.00
2022-12-12T04:39:33.984Z,0.00
2022-12-12T04:40:33.966Z,0.00
2022-12-12T04:41:33.960Z,0.00
2022-12-12T04:42:33.941Z,0.00
2022-12-12T04:43:33.938Z,0.00
2022-12-12T04:44:33.919Z,0.00
2022-12-12T04:45:33.990Z,0.00
2022-12-12T04:46:33.893Z,0.00
2022-12-12T04:47:33.882Z,0.00
2022-12-12T04:48:38.036Z,0.00
2022-12-12T04:49:34.084Z,0.00
2022-12-12T04:50:33.848Z,0.00
2022-12-12T04:51:33.829Z,0.00
2022-12-12T04:52:33.816Z,0.00
2022-12-12T04:53:33.802Z,0.00
2022-12-12T04:54:33.790Z,0.00
2022-12-12T04:55:33.777Z,0.00
2022-12-12T04:56:33.768Z,0.00
2022-12-12T04:57:33.754Z,0.00
2022-12-12T04:58:33.745Z,0.00
2022-12-12T04:59:33.732Z,0.00
2022-12-12T05:00:33.714Z,0.00
2022-12-12T05:01:33.795Z,0.00
2022-12-12T05:02:33.756Z,0.00
2022-12-12T05:03:33.674Z,0.00
2022-12-12T05:04:33.662Z,0.00
2022-12-12T05:05:33.673Z,0.00
2022-12-12T05:06:33.630Z,0.00
2022-12-12T05:07:39.322Z,0.00
2022-12-12T05:08:34.639Z,0.00
2022-12-12T05:09:33.597Z,0.00
2022-12-12T05:10:33.585Z,0.00
2022-12-12T05:11:33.574Z,0.00
2022-12-12T05:12:33.555Z,0.00
2022-12-12T05:13:33.548Z,0.00
2022-12-12T05:14:33.531Z,0.00
2022-12-12T05:15:33.518Z,0.00
2022-12-12T05:16:33.559Z,0.00
2022-12-12T05:17:33.490Z,0.00
2022-12-12T05:18:33.476Z,0.00
2022-12-12T05:19:33.468Z,0.00
2022-12-12T05:20:33.454Z,0.00
2022-12-12T05:21:33.464Z,0.00
2022-12-12T05:22:33.425Z,0.00
2022-12-12T05:23:34.941Z,0.00
2022-12-12T05:24:33.406Z,0.00
2022-12-12T05:25:33.392Z,0.00
2022-12-12T05:26:33.377Z,0.00
2022-12-12T05:27:33.367Z,0.00
2022-12-12T05:28:33.350Z,0.00
2022-12-12T05:29:33.343Z,0.00
2022-12-12T05:30:33.393Z,0.00
2022-12-12T05:31:33.307Z,0.00
2022-12-12T05:32:33.293Z,0.00
2022-12-12T05:33:33.282Z,0.00
2022-12-12T05:34:33.271Z,0.00
2022-12-12T05:35:33.258Z,0.00
2022-12-12T05:36:33.272Z,0.00
2022-12-12T05:37:33.259Z,0.00
2022-12-12T05:38:33.221Z,0.00
2022-12-12T05:39:33.211Z,0.00
2022-12-12T05:40:33.197Z,0.00
2022-12-12T05:41:33.184Z,0.00
2022-12-12T05:42:33.170Z,0.00
2022-12-12T05:43:33.156Z,0.00
2022-12-12T05:44:33.145Z,0.00
2022-12-12T05:45:33.133Z,0.00
2022-12-12T05:46:33.170Z,0.00
2022-12-12T05:47:33.104Z,0.00
2022-12-12T05:48:33.095Z,0.00
2022-12-12T05:49:33.082Z,0.00
2022-12-12T05:50:33.064Z,0.00
2022-12-12T05:51:33.055Z,0.00
2022-12-12T05:52:33.044Z,0.00
2022-12-12T05:53:39.143Z,0.00
2022-12-12T05:54:34.041Z,0.00
2022-12-12T05:55:32.996Z,0.00
2022-12-12T05:56:32.981Z,0.00
2022-12-12T05:57:32.973Z,0.00
2022-12-12T05:58:32.954Z,0.00
2022-12-12T05:59:32.948Z,0.00
2022-12-12T06:00:32.933Z,0.00
2022-12-12T06:01:32.920Z,0.00
2022-12-12T06:02:33.033Z,0.00
2022-12-12T06:03:32.898Z,0.00
2022-12-12T06:04:32.956Z,0.00
2022-12-12T06:05:32.871Z,0.00
2022-12-12T06:06:32.869Z,0.00
2022-12-12T06:07:32.843Z,0.00
2022-12-12T06:08:32.884Z,0.00
2022-12-12T06:09:32.838Z,0.00
2022-12-12T06:10:32.799Z,0.00
2022-12-12T06:11:32.794Z,0.00
2022-12-12T06:12:32.778Z,0.00
2022-12-12T06:13:32.769Z,0.00
2022-12-12T06:14:32.752Z,0.00
2022-12-12T06:15:32.827Z,0.00
2022-12-12T06:16:32.731Z,0.00
2022-12-12T06:17:33.449Z,0.00
2022-12-12T06:18:32.701Z,0.00
2022-12-12T06:19:32.685Z,0.00
2022-12-12T06:20:32.675Z,0.00
2022-12-12T06:21:32.660Z,0.00
2022-12-12T06:22:32.644Z,0.00
2022-12-12T06:23:32.636Z,0.00
2022-12-12T06:24:32.616Z,0.00
2022-12-12T06:25:32.638Z,0.00
2022-12-12T06:26:32.594Z,0.00
2022-12-12T06:27:32.586Z,0.00
2022-12-12T06:28:32.574Z,0.00
2022-12-12T06:29:32.560Z,0.00
2022-12-12T06:30:32.546Z,0.00
2022-12-12T06:31:32.622Z,0.00
2022-12-12T06:32:32.519Z,0.00
2022-12-12T06:33:32.509Z,0.00
2022-12-12T06:34:32.493Z,0.00
2022-12-12T06:35:32.476Z,0.00
2022-12-12T06:36:32.462Z,0.00
2022-12-12T06:37:32.451Z,0.00
2022-12-12T06:38:32.435Z,0.00
2022-12-12T06:39:32.424Z,0.00
2022-12-12T06:40:32.411Z,0.00
2022-12-12T06:41:32.421Z,0.00
2022-12-12T06:42:32.385Z,0.00
2022-12-12T06:43:32.378Z,0.00
2022-12-12T06:44:32.363Z,0.00
2022-12-12T06:45:32.352Z,0.00
2022-12-12T06:46:32.444Z,0.00
2022-12-12T06:47:32.323Z,0.00
2022-12-12T06:48:32.313Z,0.00
2022-12-12T06:49:32.297Z,0.00
2022-12-12T06:50:32.283Z,0.00
2022-12-12T06:51:32.267Z,0.00
2022-12-12T06:52:32.308Z,0.00
2022-12-12T06:53:32.245Z,0.00
2022-12-12T06:54:32.228Z,0.00
2022-12-12T06:55:32.214Z,0.00
2022-12-12T06:56:32.206Z,0.00
2022-12-12T06:57:32.280Z,0.00
2022-12-12T06:58:32.176Z,0.00
2022-12-12T06:59:32.166Z,0.00
2022-12-12T07:00:32.155Z,0.00
2022-12-12T07:01:32.206Z,0.00
2022-12-12T07:02:32.243Z,5.62
2022-12-12T07:03:32.119Z,5.62
2022-12-12T07:04:32.104Z,5.62
2022-12-12T07:05:32.090Z,5.62
2022-12-12T07:06:32.076Z,5.62
2022-12-12T07:07:32.075Z,5.62
2022-12-12T07:08:32.050Z,5.62
2022-12-12T07:09:32.038Z,5.62
2022-12-12T07:10:32.026Z,5.62
2022-12-12T07:11:32.018Z,5.62
2022-12-12T07:12:32.010Z,5.62
2022-12-12T07:13:32.014Z,11.25
2022-12-12T07:14:31.971Z,11.25
2022-12-12T07:15:32.039Z,11.25
2022-12-12T07:16:31.949Z,11.25
2022-12-12T07:17:31.942Z,11.25
2022-12-12T07:18:31.918Z,11.25
2022-12-12T07:19:31.901Z,11.25
2022-12-12T07:20:31.888Z,11.25
2022-12-12T07:21:31.874Z,16.88
2022-12-12T07:22:31.872Z,16.88
2022-12-12T07:23:31.853Z,16.88
2022-12-12T07:24:31.841Z,16.88
2022-12-12T07:25:31.825Z,16.88
2022-12-12T07:26:31.819Z,16.88
2022-12-12T07:27:31.805Z,16.88
2022-12-12T07:28:31.793Z,22.50
2022-12-12T07:29:31.801Z,22.50
2022-12-12T07:30:31.766Z,22.50
2022-12-12T07:31:31.810Z,22.50
2022-12-12T07:32:31.735Z,22.50
2022-12-12T07:33:42.735Z,22.50
2022-12-12T07:34:31.709Z,22.50
2022-12-12T07:35:31.694Z,22.50
2022-12-12T07:36:31.681Z,28.12
2022-12-12T07:37:31.675Z,28.12
2022-12-12T07:38:31.656Z,33.75
2022-12-12T07:39:31.648Z,33.75
2022-12-12T07:40:31.663Z,33.75
2022-12-12T07:41:31.623Z,39.38
2022-12-12T07:42:31.612Z,39.38
2022-12-12T07:43:33.133Z,33.75
2022-12-12T07:44:31.584Z,33.75
2022-12-12T07:45:31.591Z,39.38
2022-12-12T07:46:31.652Z,39.38
2022-12-12T07:47:31.543Z,39.38
2022-12-12T07:48:31.534Z,45.00
2022-12-12T07:49:31.517Z,45.00
2022-12-12T07:50:31.506Z,45.00
2022-12-12T07:51:31.491Z,45.00
2022-12-12T07:52:31.506Z,45.00
2022-12-12T07:53:31.470Z,45.00
2022-12-12T07:54:31.463Z,45.00
2022-12-12T07:55:31.443Z,50.62
2022-12-12T07:56:31.426Z,50.62
2022-12-12T07:57:31.410Z,50.62
2022-12-12T07:58:31.429Z,56.25
2022-12-12T07:59:31.385Z,56.25
2022-12-12T08:00:31.371Z,56.25
2022-12-12T08:01:31.432Z,56.25
2022-12-12T08:02:31.349Z,56.25
2022-12-12T08:03:31.339Z,56.25
2022-12-12T08:04:31.374Z,61.88
2022-12-12T08:05:31.313Z,61.88
2022-12-12T08:06:31.304Z,67.50
2022-12-12T08:07:31.284Z,67.50
2022-12-12T08:08:31.316Z,67.50
2022-12-12T08:09:31.261Z,73.12
2022-12-12T08:10:31.262Z,73.12
2022-12-12T08:11:31.231Z,78.75
2022-12-12T08:12:31.220Z,73.12
2022-12-12T08:13:31.205Z,73.12
2022-12-12T08:14:31.194Z,73.12
2022-12-12T08:15:31.186Z,73.12
2022-12-12T08:16:31.253Z,73.12
2022-12-12T08:17:31.180Z,78.75
2022-12-12T08:18:31.149Z,78.75
2022-12-12T08:19:31.126Z,84.38
2022-12-12T08:20:31.116Z,84.38
2022-12-12T08:21:31.102Z,90.00
2022-12-12T08:22:31.101Z,95.62
2022-12-12T08:23:31.079Z,95.62
2022-12-12T08:24:31.067Z,95.62
2022-12-12T08:25:31.054Z,101.25
2022-12-12T08:26:31.066Z,101.25
2022-12-12T08:27:31.034Z,106.88
2022-12-12T08:28:31.023Z,106.88
2022-12-12T08:29:31.004Z,106.88
2022-12-12T08:30:30.995Z,106.88
2022-12-12T08:31:30.996Z,112.50
2022-12-12T08:32:30.970Z,118.12
2022-12-12T08:33:30.976Z,112.50
2022-12-12T08:34:30.941Z,112.50
2022-12-12T08:35:30.923Z,118.12
2022-12-12T08:36:30.913Z,118.12
2022-12-12T08:37:30.907Z,118.12
2022-12-12T08:38:30.885Z,118.12
2022-12-12T08:39:30.872Z,123.75
2022-12-12T08:40:30.862Z,123.75
2022-12-12T08:41:30.847Z,123.75
2022-12-12T08:42:30.838Z,123.75
2022-12-12T08:43:30.827Z,135.00
2022-12-12T08:44:30.813Z,135.00
2022-12-12T08:45:30.801Z,135.00
2022-12-12T08:46:30.833Z,140.62
2022-12-12T08:47:30.779Z,146.25
2022-12-12T08:48:30.965Z,151.88
2022-12-12T08:49:30.784Z,157.50
2022-12-12T08:50:30.734Z,157.50
2022-12-12T08:51:30.726Z,157.50
2022-12-12T08:52:30.714Z,151.88
2022-12-12T08:53:30.700Z,151.88
2022-12-12T08:54:30.681Z,151.88
2022-12-12T08:55:30.671Z,151.88
2022-12-12T08:56:30.655Z,151.88
2022-12-12T08:57:30.645Z,151.88
2022-12-12T08:58:30.634Z,146.25
2022-12-12T08:59:30.620Z,151.88
2022-12-12T09:00:30.605Z,157.50
2022-12-12T09:01:30.731Z,157.50
2022-12-12T09:02:30.679Z,157.50
2022-12-12T09:03:30.574Z,163.12
2022-12-12T09:04:30.558Z,168.75
2022-12-12T09:05:30.574Z,174.38
2022-12-12T09:06:30.529Z,180.00
2022-12-12T09:07:30.513Z,174.38
2022-12-12T09:08:30.607Z,174.38
2022-12-12T09:09:30.490Z,174.38
2022-12-12T09:10:30.472Z,174.38
2022-12-12T09:11:30.456Z,168.75
2022-12-12T09:12:30.672Z,174.38
2022-12-12T09:13:30.431Z,185.62
2022-12-12T09:14:30.424Z,185.62
2022-12-12T09:15:30.403Z,191.25
2022-12-12T09:16:30.468Z,185.62
2022-12-12T09:17:30.376Z,185.62
2022-12-12T09:18:30.371Z,180.00
2022-12-12T09:19:30.350Z,185.62
2022-12-12T09:20:30.542Z,191.25
2022-12-12T09:21:30.357Z,196.88
2022-12-12T09:22:30.313Z,196.88
2022-12-12T09:23:30.295Z,208.12
2022-12-12T09:24:30.285Z,208.12
2022-12-12T09:25:30.268Z,202.50
2022-12-12T09:26:30.265Z,213.75
2022-12-12T09:27:30.272Z,225.00
2022-12-12T09:28:30.270Z,219.38
2022-12-12T09:29:30.222Z,219.38
2022-12-12T09:30:30.206Z,219.38
2022-12-12T09:31:30.244Z,225.00
2022-12-12T09:32:30.183Z,241.88
2022-12-12T09:33:30.166Z,264.38
2022-12-12T09:34:30.151Z,275.62
2022-12-12T09:35:30.135Z,286.88
2022-12-12T09:36:30.125Z,309.38
2022-12-12T09:37:30.137Z,309.38
2022-12-12T09:38:30.105Z,315.00
2022-12-12T09:39:30.086Z,315.00
2022-12-12T09:40:30.301Z,315.00
2022-12-12T09:41:30.061Z,315.00
2022-12-12T09:42:30.049Z,320.62
2022-12-12T09:43:30.121Z,315.00
2022-12-12T09:44:30.032Z,303.75
2022-12-12T09:45:30.069Z,286.88
2022-12-12T09:46:29.996Z,270.00
2022-12-12T09:47:29.987Z,253.12
2022-12-12T09:48:29.974Z,247.50
2022-12-12T09:49:29.959Z,247.50
2022-12-12T09:50:29.942Z,241.88
2022-12-12T09:51:29.938Z,225.00
2022-12-12T09:52:31.308Z,208.12
2022-12-12T09:53:29.967Z,202.50
2022-12-12T09:54:29.888Z,202.50
2022-12-12T09:55:29.882Z,202.50
2022-12-12T09:56:29.869Z,202.50
2022-12-12T09:57:29.855Z,213.75
2022-12-12T09:58:29.840Z,219.38
2022-12-12T09:59:29.825Z,230.62
2022-12-12T10:00:29.813Z,241.88
2022-12-12T10:01:29.798Z,247.50
2022-12-12T10:02:29.856Z,247.50
2022-12-12T10:03:29.772Z,247.50
2022-12-12T10:04:29.760Z,253.12
2022-12-12T10:05:29.745Z,253.12
2022-12-12T10:06:38.151Z,253.12
2022-12-12T10:07:30.751Z,258.75
2022-12-12T10:08:29.765Z,264.38
2022-12-12T10:09:29.726Z,275.62
2022-12-12T10:10:29.681Z,281.25
2022-12-12T10:11:29.668Z,286.88
2022-12-12T10:12:29.660Z,286.88
2022-12-12T10:13:29.645Z,292.50
2022-12-12T10:14:29.627Z,303.75
2022-12-12T10:15:29.611Z,315.00
2022-12-12T10:16:29.624Z,326.25
2022-12-12T10:17:29.588Z,343.12
2022-12-12T10:18:29.581Z,365.62
2022-12-12T10:19:29.560Z,382.50
2022-12-12T10:20:29.549Z,388.12
2022-12-12T10:21:29.535Z,393.75
2022-12-12T10:22:29.525Z,388.12
2022-12-12T10:23:29.510Z,382.50
2022-12-12T10:24:29.498Z,376.88
2022-12-12T10:25:29.512Z,371.25
2022-12-12T10:26:29.473Z,354.38
2022-12-12T10:27:29.453Z,360.00
2022-12-12T10:28:29.443Z,365.62
2022-12-12T10:29:29.429Z,376.88
2022-12-12T10:30:29.421Z,376.88
2022-12-12T10:31:29.511Z,348.75
2022-12-12T10:32:29.395Z,326.25
2022-12-12T10:33:29.386Z,298.12
2022-12-12T10:34:29.362Z,286.88
2022-12-12T10:35:29.723Z,292.50
2022-12-12T10:36:29.343Z,292.50
2022-12-12T10:37:29.329Z,286.88
2022-12-12T10:38:29.314Z,275.62
2022-12-12T10:39:29.296Z,275.62
2022-12-12T10:40:29.288Z,281.25
2022-12-12T10:41:29.303Z,275.62
2022-12-12T10:42:29.289Z,275.62
2022-12-12T10:43:29.250Z,258.75
2022-12-12T10:44:29.230Z,253.12
2022-12-12T10:45:29.261Z,236.25
2022-12-12T10:46:29.442Z,253.12
2022-12-12T10:47:29.196Z,253.12
2022-12-12T10:48:29.178Z,247.50
2022-12-12T10:49:29.167Z,230.62
2022-12-12T10:50:29.155Z,225.00
2022-12-12T10:51:29.143Z,219.38
2022-12-12T10:52:29.135Z,213.75
2022-12-12T10:53:29.115Z,230.62
2022-12-12T10:54:29.157Z,230.62
2022-12-12T10:55:29.091Z,230.62
2022-12-12T10:56:29.071Z,219.38
2022-12-12T10:57:29.676Z,225.00
2022-12-12T10:58:29.048Z,219.38
2022-12-12T10:59:29.036Z,225.00
2022-12-12T11:00:29.019Z,225.00
2022-12-12T11:02:00.682Z,225.00
2022-12-12T11:02:29.216Z,225.00
2022-12-12T11:03:29.061Z,230.62
2022-12-12T11:04:28.968Z,253.12
2022-12-12T11:05:28.952Z,247.50
2022-12-12T11:06:28.946Z,253.12
2022-12-12T11:07:28.927Z,298.12
2022-12-12T11:08:28.985Z,292.50
2022-12-12T11:09:28.901Z,275.62
2022-12-12T11:10:33.674Z,258.75
2022-12-12T11:11:28.881Z,236.25
2022-12-12T11:12:28.863Z,258.75
2022-12-12T11:13:28.884Z,264.38
2022-12-12T11:14:28.835Z,264.38
2022-12-12T11:15:28.827Z,264.38
2022-12-12T11:16:28.844Z,258.75
2022-12-12T11:17:28.802Z,253.12
2022-12-12T11:18:28.784Z,258.75
2022-12-12T11:19:28.772Z,264.38
2022-12-12T11:20:28.754Z,264.38
2022-12-12T11:21:28.744Z,270.00
2022-12-12T11:22:28.737Z,270.00
2022-12-12T11:23:28.720Z,264.38
2022-12-12T11:24:28.713Z,264.38
2022-12-12T11:25:28.691Z,270.00
2022-12-12T11:26:28.690Z,270.00
2022-12-12T11:27:28.668Z,270.00
2022-12-12T11:28:28.652Z,286.88
2022-12-12T11:29:28.674Z,309.38
2022-12-12T11:30:28.630Z,298.12
2022-12-12T11:31:28.667Z,281.25
2022-12-12T11:32:28.600Z,303.75
2022-12-12T11:33:28.592Z,337.50
2022-12-12T11:34:28.582Z,320.62
2022-12-12T11:35:28.567Z,348.75
2022-12-12T11:36:28.556Z,405.00
2022-12-12T11:37:28.542Z,427.50
2022-12-12T11:38:28.521Z,455.62
2022-12-12T11:39:28.519Z,450.00
2022-12-12T11:40:28.501Z,450.00
2022-12-12T11:41:28.488Z,607.50
2022-12-12T11:42:28.468Z,742.50
2022-12-12T11:43:28.457Z,776.25
2022-12-12T11:44:28.441Z,787.50
2022-12-12T11:45:28.568Z,804.38
2022-12-12T11:46:28.418Z,810.00
2022-12-12T11:47:28.403Z,804.38
2022-12-12T11:48:28.390Z,798.75
2022-12-12T11:49:28.380Z,793.12
2022-12-12T11:50:28.370Z,798.75
2022-12-12T11:51:28.357Z,804.38
2022-12-12T11:52:28.340Z,798.75
2022-12-12T11:53:28.330Z,804.38
2022-12-12T11:54:28.313Z,815.62
2022-12-12T11:55:28.300Z,826.88
2022-12-12T11:56:28.287Z,821.25
2022-12-12T11:57:28.279Z,804.38
2022-12-12T11:58:28.253Z,793.12
2022-12-12T11:59:28.252Z,787.50
2022-12-12T12:00:28.232Z,781.88
2022-12-12T12:01:28.247Z,770.62
2022-12-12T12:02:28.202Z,770.62
2022-12-12T12:03:28.336Z,776.25
2022-12-12T12:04:28.238Z,781.88
2022-12-12T12:05:28.175Z,781.88
2022-12-12T12:06:28.159Z,770.62
2022-12-12T12:07:28.138Z,765.00
2022-12-12T12:08:28.145Z,770.62
2022-12-12T12:09:28.112Z,776.25
2022-12-12T12:10:28.099Z,781.88
2022-12-12T12:11:28.083Z,781.88
2022-12-12T12:12:28.066Z,765.00
2022-12-12T12:13:28.056Z,753.75
2022-12-12T12:14:28.043Z,736.88
2022-12-12T12:15:28.031Z,736.88
2022-12-12T12:16:28.116Z,748.12
2022-12-12T12:17:28.032Z,759.38
2022-12-12T12:18:28.415Z,765.00
2022-12-12T12:19:27.981Z,759.38
2022-12-12T12:20:27.965Z,742.50
2022-12-12T12:21:27.954Z,731.25
2022-12-12T12:22:27.932Z,725.62
2022-12-12T12:23:27.920Z,720.00
2022-12-12T12:24:27.906Z,725.62
2022-12-12T12:25:27.899Z,731.25
2022-12-12T12:26:27.885Z,736.88
2022-12-12T12:27:27.870Z,725.62
2022-12-12T12:28:27.854Z,720.00
2022-12-12T12:29:27.844Z,703.12
2022-12-12T12:30:27.850Z,703.12
2022-12-12T12:31:27.817Z,697.50
2022-12-12T12:32:27.800Z,703.12
2022-12-12T12:33:27.814Z,714.38
2022-12-12T12:34:27.777Z,708.75
2022-12-12T12:35:27.760Z,703.12
2022-12-12T12:36:27.746Z,697.50
2022-12-12T12:37:27.735Z,691.88
2022-12-12T12:38:27.723Z,686.25
2022-12-12T12:39:27.711Z,686.25
2022-12-12T12:40:27.698Z,686.25
2022-12-12T12:41:27.687Z,680.62
2022-12-12T12:42:27.662Z,663.75
2022-12-12T12:43:27.659Z,652.50
2022-12-12T12:44:27.642Z,658.12
2022-12-12T12:45:27.636Z,652.50
2022-12-12T12:46:27.682Z,652.50
2022-12-12T12:47:27.599Z,641.25
2022-12-12T12:48:27.584Z,635.62
2022-12-12T12:49:27.605Z,630.00
2022-12-12T12:50:27.562Z,635.62
2022-12-12T12:51:27.556Z,624.38
2022-12-12T12:52:27.533Z,613.12
2022-12-12T12:53:27.520Z,607.50
2022-12-12T12:54:27.510Z,613.12
2022-12-12T12:55:27.501Z,618.75
2022-12-12T12:56:27.482Z,613.12
2022-12-12T12:57:27.473Z,601.88